Silver Bay, MN

5:42 PM CST on December 20, 2014 (GMT -0600)
Silver Creek - Town Rd | Change Station
CLOSE
Current Station
Personal Weather Station
Location: Lake County, MN
Elevation: 985 ft
Nearby Weather Stations
Active Advisory: Winter Storm Watch

Elev 985 ft 47.11 °N, 91.59 °W | Updated 3 seconds ago

Overcast
Overcast
31.2 °F
Feels Like 31 °F
N
3.0
Wind Variable Wind from SW
Gusts 3.0 mph

Today
High -- | Low -- °F
--% Chance of Precip.
Yesterday
High -- | Low -- °F
Precip. -- in
7:48 AM 4:16 PM
Waning Crescent, 2% visible
Pressure 30.07 in
Visibility 7.0 miles
Clouds Overcast 1300 ft
Windchill 31 °F
Dew Point 28 °F
Humidity 89%
Rainfall 0.00 in
Snow Depth Not available.
UV 0 out of 12
Pollen .10 out of 12
Air Quality Not available.
Flu Activity Not available.
METAR KBFW 202334Z AUTO 17008KT 7SM OVC013 00/M02 A3007 RMK AO2

More Conditions Fewer Conditions

Pressure 30.07 in
Visibility 7.0 miles
Clouds Overcast 1300 ft
Windchill 31 °F
Dew Point 28 °F
Humidity 89%
Rainfall 0.00 in
Snow Depth Not available.
UV 0 out of 12
Pollen .10 out of 12
Air Quality Not available.
Flu Activity Not available.
METAR KBFW 202334Z AUTO 17008KT 7SM OVC013 00/M02 A3007 RMK AO2

More Conditions Fewer Conditions

10-Day Weather Forecast

Almanac

Astronomy

Dec. 20, 2014 Rise Set
Actual Time
Civil Twilight
Nautical Twilight
Astronomical Twilight
Moon
Length of Visible Light
Length of Day
Tomorrow will be .
, % of the Moon is Illuminated

Today's Extremes

State Highs State Lows

Community

WunderPhotos

Upload Photos

1,779,319 photos uploaded!

WunderBlogs® & News

Nearby

Air Quality

  Air Quality AQ Index Pollutant
Not available.

Snow Depth

Station Depth Elevation

Earthquake Activity

City Distance Mag. Time & Date
Minimum magnitude displayed is 2.5.

Coastal Water Temperatures

Place Temperature

Nearby Weather Stations